createdAt,value
2018-04-30T00:00:01.165Z,15.58
2018-04-30T00:01:01.123Z,15.65
2018-04-30T00:02:01.271Z,15.58
2018-04-30T00:03:01.024Z,15.51
2018-04-30T00:04:01.132Z,15.56
2018-04-30T00:05:01.001Z,15.58
2018-04-30T00:06:01.057Z,15.50
2018-04-30T00:07:00.976Z,15.52
2018-04-30T00:08:01.267Z,15.56
2018-04-30T00:09:00.876Z,15.56
2018-04-30T00:10:01.002Z,15.56
2018-04-30T00:11:00.837Z,15.56
2018-04-30T00:12:00.978Z,15.52
2018-04-30T00:13:00.952Z,15.56
2018-04-30T00:14:01.102Z,15.56
2018-04-30T00:15:00.792Z,15.47
2018-04-30T00:16:01.982Z,15.54
2018-04-30T00:17:00.846Z,15.36
2018-04-30T00:18:00.941Z,15.41
2018-04-30T00:19:00.940Z,15.40
2018-04-30T00:20:01.142Z,15.41
2018-04-30T00:21:00.828Z,15.40
2018-04-30T00:22:01.116Z,15.32
2018-04-30T00:23:00.703Z,15.38
2018-04-30T00:24:00.758Z,15.40
2018-04-30T00:25:00.750Z,15.33
2018-04-30T00:26:01.031Z,15.40
2018-04-30T00:27:00.723Z,15.32
2018-04-30T00:28:01.869Z,15.41
2018-04-30T00:29:00.607Z,15.30
2018-04-30T00:30:00.587Z,15.27
2018-04-30T00:31:00.574Z,15.30
2018-04-30T00:32:00.576Z,15.30
2018-04-30T00:33:00.906Z,15.27
2018-04-30T00:35:00.636Z,15.32
2018-04-30T00:36:00.603Z,15.27
2018-04-30T00:37:00.581Z,15.36
2018-04-30T00:38:00.625Z,15.40
2018-04-30T00:39:00.562Z,15.35
2018-04-30T00:40:00.793Z,15.45
2018-04-30T00:41:00.573Z,15.33
2018-04-30T00:42:00.567Z,15.38
2018-04-30T00:43:00.527Z,15.30
2018-04-30T00:44:00.524Z,15.30
2018-04-30T00:45:00.690Z,15.32
2018-04-30T00:46:00.527Z,15.40
2018-04-30T00:47:00.979Z,15.27
2018-04-30T00:48:00.439Z,15.32
2018-04-30T00:49:00.426Z,15.32
2018-04-30T00:50:00.488Z,15.33
2018-04-30T00:51:00.314Z,15.27
2018-04-30T00:52:00.420Z,15.32
2018-04-30T00:53:00.694Z,15.35
2018-04-30T00:54:00.681Z,15.29
2018-04-30T00:55:00.472Z,15.27
2018-04-30T00:56:00.387Z,15.41
2018-04-30T00:57:00.343Z,15.33
2018-04-30T00:58:00.376Z,15.26
2018-04-30T00:59:00.423Z,15.32
2018-04-30T01:00:00.344Z,15.29
2018-04-30T01:01:00.596Z,15.25
2018-04-30T01:02:00.319Z,15.32
2018-04-30T01:03:00.365Z,15.30
2018-04-30T01:04:00.302Z,15.32
2018-04-30T01:05:00.249Z,15.29
2018-04-30T01:06:00.551Z,15.29
2018-04-30T01:07:00.431Z,15.20
2018-04-30T01:08:00.576Z,15.22
2018-04-30T01:09:00.230Z,15.20
2018-04-30T01:10:00.239Z,15.10
2018-04-30T01:11:00.350Z,15.20
2018-04-30T01:12:00.191Z,15.11
2018-04-30T01:13:00.144Z,15.25
2018-04-30T01:14:00.169Z,15.12
2018-04-30T01:15:00.503Z,15.08
2018-04-30T01:16:00.190Z,15.14
2018-04-30T01:17:00.306Z,15.08
2018-04-30T01:18:00.041Z,15.07
2018-04-30T01:19:00.031Z,15.05
2018-04-30T01:19:59.935Z,15.04
2018-04-30T01:21:00.078Z,14.92
2018-04-30T01:22:00.328Z,14.92
2018-04-30T01:23:00.108Z,14.90
2018-04-30T01:24:00.075Z,14.90
2018-04-30T01:25:00.074Z,14.74
2018-04-30T01:25:59.999Z,14.78
2018-04-30T01:26:59.993Z,14.71
2018-04-30T01:28:00.241Z,14.77
2018-04-30T01:29:00.061Z,14.73
2018-04-30T01:30:00.006Z,14.74
2018-04-30T01:30:59.863Z,14.73
2018-04-30T01:31:59.865Z,14.61
2018-04-30T01:32:59.856Z,14.69
2018-04-30T01:34:00.182Z,14.59
2018-04-30T01:34:59.859Z,14.55
2018-04-30T01:35:59.710Z,14.55
2018-04-30T01:36:59.782Z,14.55
2018-04-30T01:37:59.686Z,14.53
2018-04-30T01:38:59.671Z,14.59
2018-04-30T01:39:59.999Z,14.64
2018-04-30T01:40:59.644Z,14.55
2018-04-30T01:41:59.640Z,14.52
2018-04-30T01:42:59.711Z,14.56
2018-04-30T01:43:59.608Z,14.52
2018-04-30T01:44:59.596Z,14.56
2018-04-30T01:45:59.884Z,14.58
2018-04-30T01:46:59.647Z,14.55
2018-04-30T01:47:59.551Z,14.45
2018-04-30T01:48:59.819Z,14.59
2018-04-30T01:49:59.604Z,14.53
2018-04-30T01:50:59.513Z,14.52
2018-04-30T01:51:59.493Z,14.53
2018-04-30T01:52:59.530Z,14.48
2018-04-30T01:53:59.553Z,14.45
2018-04-30T01:54:59.539Z,14.46
2018-04-30T01:55:59.590Z,14.45
2018-04-30T01:56:59.424Z,14.53
2018-04-30T01:57:59.718Z,14.53
2018-04-30T01:58:59.449Z,14.52
2018-04-30T01:59:59.382Z,14.46
2018-04-30T02:00:59.372Z,14.51
2018-04-30T02:01:59.355Z,14.46
2018-04-30T02:02:59.428Z,14.51
2018-04-30T02:03:59.410Z,14.49
2018-04-30T02:04:59.751Z,14.48
2018-04-30T02:05:59.400Z,14.41
2018-04-30T02:06:59.395Z,14.41
2018-04-30T02:07:59.373Z,14.38
2018-04-30T02:08:59.263Z,14.38
2018-04-30T02:09:59.249Z,14.37
2018-04-30T02:10:59.385Z,14.34
2018-04-30T02:11:59.559Z,14.33
2018-04-30T02:12:59.201Z,14.28
2018-04-30T02:13:59.272Z,14.40
2018-04-30T02:14:59.267Z,14.26
2018-04-30T02:15:59.160Z,14.26
2018-04-30T02:16:59.197Z,14.28
2018-04-30T02:17:59.225Z,14.27
2018-04-30T02:18:59.421Z,14.28
2018-04-30T02:19:59.192Z,14.30
2018-04-30T02:20:59.180Z,14.30
2018-04-30T02:21:59.188Z,14.31
2018-04-30T02:22:59.208Z,14.26
2018-04-30T02:23:59.149Z,14.26
2018-04-30T02:24:59.129Z,14.31
2018-04-30T02:25:59.608Z,14.28
2018-04-30T02:26:59.098Z,14.30
2018-04-30T02:27:59.089Z,14.30
2018-04-30T02:28:59.090Z,14.34
2018-04-30T02:29:59.057Z,14.30
2018-04-30T02:30:59.349Z,14.31
2018-04-30T02:31:58.943Z,14.28
2018-04-30T02:32:59.235Z,14.26
2018-04-30T02:33:58.916Z,14.22
2018-04-30T02:34:59.037Z,14.23
2018-04-30T02:35:58.980Z,14.19
2018-04-30T02:36:58.882Z,14.16
2018-04-30T02:37:58.864Z,14.18
2018-04-30T02:38:58.857Z,14.27
2018-04-30T02:40:58.980Z,14.19
2018-04-30T02:41:59.019Z,14.16
2018-04-30T02:42:58.939Z,14.26
2018-04-30T02:43:58.897Z,14.16
2018-04-30T02:44:58.769Z,14.21
2018-04-30T02:45:58.748Z,14.18
2018-04-30T02:47:00.362Z,14.22
2018-04-30T02:47:58.815Z,14.31
2018-04-30T02:48:58.786Z,14.30
2018-04-30T02:49:58.777Z,14.21
2018-04-30T02:50:58.763Z,14.28
2018-04-30T02:51:58.757Z,14.26
2018-04-30T02:52:58.730Z,14.30
2018-04-30T02:53:59.123Z,14.30
2018-04-30T02:54:58.633Z,14.30
2018-04-30T02:55:58.883Z,14.37
2018-04-30T02:56:58.674Z,14.36
2018-04-30T02:57:58.572Z,14.37
2018-04-30T02:58:58.617Z,14.33
2018-04-30T02:59:59.148Z,14.41
2018-04-30T03:00:58.613Z,14.36
2018-04-30T03:01:58.627Z,14.45
2018-04-30T03:02:58.651Z,14.51
2018-04-30T03:03:58.640Z,14.33
2018-04-30T03:04:58.609Z,14.40
2018-04-30T03:05:58.885Z,14.31
2018-04-30T03:06:58.607Z,14.37
2018-04-30T03:07:58.605Z,14.38
2018-04-30T03:08:58.501Z,14.38
2018-04-30T03:09:58.497Z,14.40
2018-04-30T03:10:58.626Z,14.34
2018-04-30T03:11:58.763Z,14.37
2018-04-30T03:12:58.451Z,14.36
2018-04-30T03:13:58.439Z,14.40
2018-04-30T03:14:58.428Z,14.36
2018-04-30T03:15:58.426Z,14.31
2018-04-30T03:17:58.473Z,14.36
2018-04-30T03:18:58.715Z,14.33
2018-04-30T03:19:58.359Z,14.36
2018-04-30T03:20:58.437Z,14.37
2018-04-30T03:21:58.321Z,14.31
2018-04-30T03:22:58.313Z,14.33
2018-04-30T03:23:58.353Z,14.34
2018-04-30T03:24:58.593Z,14.38
2018-04-30T03:25:58.184Z,14.33
2018-04-30T03:26:58.167Z,14.49
2018-04-30T03:27:58.159Z,14.48
2018-04-30T03:28:58.340Z,14.37
2018-04-30T03:29:58.182Z,14.33
2018-04-30T03:30:58.493Z,14.36
2018-04-30T03:31:58.281Z,14.36
2018-04-30T03:33:58.073Z,14.37
2018-04-30T03:34:58.056Z,14.36
2018-04-30T03:36:01.425Z,14.36
2018-04-30T03:36:58.348Z,14.31
2018-04-30T03:37:58.014Z,14.37
2018-04-30T03:38:58.077Z,14.31
2018-04-30T03:39:58.071Z,14.27
2018-04-30T03:40:58.092Z,14.28
2018-04-30T03:41:58.356Z,14.23
2018-04-30T03:42:58.028Z,14.27
2018-04-30T03:43:58.317Z,14.30
2018-04-30T03:44:57.996Z,14.26
2018-04-30T03:45:59.103Z,14.26
2018-04-30T03:46:57.884Z,14.28
2018-04-30T03:47:57.948Z,14.30
2018-04-30T03:48:57.857Z,14.28
2018-04-30T03:49:57.922Z,14.26
2018-04-30T03:50:58.309Z,14.27
2018-04-30T03:51:57.814Z,14.27
2018-04-30T03:52:57.894Z,14.37
2018-04-30T03:53:57.845Z,14.31
2018-04-30T03:54:57.942Z,14.48
2018-04-30T03:55:57.814Z,14.55
2018-04-30T03:56:57.757Z,14.52
2018-04-30T03:57:58.039Z,14.63
2018-04-30T03:58:58.072Z,14.64
2018-04-30T03:59:59.225Z,14.74
2018-04-30T04:00:58.185Z,14.71
2018-04-30T04:01:57.951Z,14.64
2018-04-30T04:02:57.885Z,14.61
2018-04-30T04:03:57.759Z,14.55
2018-04-30T04:04:58.195Z,14.58
2018-04-30T04:05:57.733Z,14.61
2018-04-30T04:06:57.719Z,14.58
2018-04-30T04:07:57.704Z,14.61
2018-04-30T04:08:57.776Z,14.58
2018-04-30T04:09:57.796Z,14.61
2018-04-30T04:10:57.748Z,14.58
2018-04-30T04:11:58.215Z,14.55
2018-04-30T04:12:57.642Z,14.59
2018-04-30T04:13:57.614Z,14.63
2018-04-30T04:14:57.617Z,14.59
2018-04-30T04:15:58.965Z,14.59
2018-04-30T04:16:57.567Z,14.61
2018-04-30T04:17:57.552Z,14.77
2018-04-30T04:18:57.838Z,14.77
2018-04-30T04:19:57.518Z,14.79
2018-04-30T04:20:57.526Z,14.78
2018-04-30T04:21:57.794Z,14.85
2018-04-30T04:22:57.700Z,14.85
2018-04-30T04:23:57.633Z,14.79
2018-04-30T04:24:58.059Z,14.95
2018-04-30T04:25:57.715Z,14.87
2018-04-30T04:26:57.472Z,14.96
2018-04-30T04:27:57.692Z,14.90
2018-04-30T04:28:57.288Z,14.97
2018-04-30T04:29:57.501Z,14.87
2018-04-30T04:30:57.554Z,14.92
2018-04-30T04:31:57.242Z,15.03
2018-04-30T04:32:57.227Z,15.11
2018-04-30T04:33:57.304Z,15.20
2018-04-30T04:34:57.287Z,15.22
2018-04-30T04:35:57.358Z,15.20
2018-04-30T04:36:57.568Z,15.23
2018-04-30T04:37:57.253Z,15.23
2018-04-30T04:39:57.423Z,15.32
2018-04-30T04:40:57.301Z,15.45
2018-04-30T04:41:57.306Z,15.45
2018-04-30T04:42:57.678Z,15.44
2018-04-30T04:43:57.266Z,15.47
2018-04-30T04:44:57.230Z,15.44
2018-04-30T04:45:57.175Z,15.50
2018-04-30T04:46:57.186Z,15.50
2018-04-30T04:47:57.214Z,15.58
2018-04-30T04:48:57.319Z,15.59
2018-04-30T04:49:57.010Z,15.52
2018-04-30T04:50:56.986Z,15.58
2018-04-30T04:51:56.970Z,15.59
2018-04-30T04:52:56.956Z,15.59
2018-04-30T04:53:57.103Z,15.59
2018-04-30T04:54:57.422Z,15.56
2018-04-30T04:55:57.067Z,15.58
2018-04-30T04:56:57.019Z,15.60
2018-04-30T04:57:57.011Z,15.58
2018-04-30T04:58:56.887Z,15.66
2018-04-30T04:59:56.876Z,15.59
2018-04-30T05:00:57.493Z,15.58
2018-04-30T05:01:56.929Z,15.66
2018-04-30T05:02:56.933Z,15.62
2018-04-30T05:03:56.938Z,15.60
2018-04-30T05:05:57.121Z,15.60
2018-04-30T05:06:57.079Z,15.63
2018-04-30T05:07:56.845Z,15.76
2018-04-30T05:08:56.831Z,15.68
2018-04-30T05:09:56.829Z,15.70
2018-04-30T05:10:56.889Z,15.72
2018-04-30T05:11:56.899Z,15.65
2018-04-30T05:12:56.826Z,15.66
2018-04-30T05:13:56.983Z,15.59
2018-04-30T05:14:56.673Z,15.56
2018-04-30T05:15:56.866Z,15.66
2018-04-30T05:16:56.642Z,15.59
2018-04-30T05:17:56.686Z,15.59
2018-04-30T05:18:56.615Z,15.60
2018-04-30T05:19:56.604Z,15.48
2018-04-30T05:20:56.948Z,15.43
2018-04-30T05:21:56.578Z,15.38
2018-04-30T05:22:56.564Z,15.44
2018-04-30T05:24:56.773Z,15.41
2018-04-30T05:25:56.612Z,15.38
2018-04-30T05:26:56.623Z,15.33
2018-04-30T05:27:56.869Z,15.43
2018-04-30T05:28:56.592Z,15.51
2018-04-30T05:29:56.473Z,15.47
2018-04-30T05:30:56.460Z,15.45
2018-04-30T05:31:56.461Z,15.43
2018-04-30T05:32:56.492Z,15.50
2018-04-30T05:33:56.430Z,15.48
2018-04-30T05:34:56.710Z,15.51
2018-04-30T05:35:56.396Z,15.60
2018-04-30T05:36:56.531Z,15.63
2018-04-30T05:37:56.468Z,15.66
2018-04-30T05:38:56.362Z,15.63
2018-04-30T05:39:56.350Z,15.65
2018-04-30T05:40:56.345Z,15.56
2018-04-30T05:41:58.050Z,15.65
2018-04-30T05:43:56.493Z,15.66
2018-04-30T05:44:56.397Z,15.65
2018-04-30T05:45:56.278Z,15.80
2018-04-30T05:46:56.339Z,15.83
2018-04-30T05:47:56.415Z,15.90
2018-04-30T05:48:56.741Z,15.85
2018-04-30T05:49:56.355Z,15.78
2018-04-30T05:50:56.499Z,15.88
2018-04-30T05:51:56.213Z,15.93
2018-04-30T05:52:56.187Z,15.96
2018-04-30T05:53:56.167Z,16.05
2018-04-30T05:54:56.466Z,16.03
2018-04-30T05:55:56.478Z,16.14
2018-04-30T05:58:56.205Z,16.36
2018-04-30T05:59:56.196Z,16.55
2018-04-30T06:00:56.386Z,16.64
2018-04-30T06:01:56.401Z,16.76
2018-04-30T06:02:56.061Z,16.72
2018-04-30T06:03:56.127Z,16.82
2018-04-30T06:04:56.495Z,16.74
2018-04-30T06:05:56.130Z,16.73
2018-04-30T06:06:56.390Z,16.84
2018-04-30T06:07:56.127Z,16.95
2018-04-30T06:08:55.985Z,17.02
2018-04-30T06:09:55.966Z,17.09
2018-04-30T06:10:55.966Z,17.16
2018-04-30T06:11:56.041Z,17.02
2018-04-30T06:12:56.275Z,16.97
2018-04-30T06:13:56.173Z,16.98
2018-04-30T06:14:56.001Z,16.97
2018-04-30T06:15:55.913Z,16.94
2018-04-30T06:16:55.966Z,16.88
2018-04-30T06:17:56.126Z,16.79
2018-04-30T06:18:56.172Z,16.84
2018-04-30T06:19:55.986Z,16.77
2018-04-30T06:20:55.851Z,16.80
2018-04-30T06:22:56.018Z,16.79
2018-04-30T06:23:55.813Z,16.87
2018-04-30T06:24:56.094Z,16.82
2018-04-30T06:25:55.888Z,16.88
2018-04-30T06:26:55.923Z,16.92
2018-04-30T06:27:55.887Z,16.91
2018-04-30T06:28:55.744Z,16.92
2018-04-30T06:29:55.738Z,16.95
2018-04-30T06:30:56.020Z,17.07
2018-04-30T06:31:55.937Z,17.06
2018-04-30T06:32:55.696Z,16.91
2018-04-30T06:33:55.695Z,17.07
2018-04-30T06:34:55.680Z,17.02
2018-04-30T06:35:55.676Z,17.04
2018-04-30T06:36:55.961Z,16.99
2018-04-30T06:37:55.755Z,17.07
2018-04-30T06:38:55.651Z,17.20
2018-04-30T06:39:55.626Z,17.28
2018-04-30T06:42:55.891Z,17.22
2018-04-30T06:43:55.575Z,17.24
2018-04-30T06:44:55.837Z,17.10
2018-04-30T06:45:55.814Z,17.10
2018-04-30T06:46:55.536Z,17.19
2018-04-30T06:47:55.528Z,17.30
2018-04-30T06:48:55.525Z,17.30
2018-04-30T06:49:55.863Z,17.32
2018-04-30T06:50:55.490Z,17.28
2018-04-30T06:51:55.485Z,17.30
2018-04-30T06:52:55.469Z,17.24
2018-04-30T06:53:55.465Z,17.37
2018-04-30T06:54:55.618Z,17.31
2018-04-30T06:55:55.489Z,17.28
2018-04-30T06:56:55.735Z,17.41
2018-04-30T06:57:55.542Z,17.32
2018-04-30T06:59:55.511Z,17.49
2018-04-30T07:00:55.380Z,17.37
2018-04-30T07:01:56.724Z,17.49
2018-04-30T07:02:55.365Z,17.47
2018-04-30T07:03:55.749Z,17.59
2018-04-30T07:04:55.335Z,17.56
2018-04-30T07:05:55.861Z,17.65
2018-04-30T07:06:55.323Z,17.57
2018-04-30T07:07:55.952Z,17.56
2018-04-30T07:08:55.416Z,17.59
2018-04-30T07:09:55.802Z,17.52
2018-04-30T07:10:55.690Z,17.57
2018-04-30T07:11:55.474Z,17.66
2018-04-30T07:12:55.362Z,17.73
2018-04-30T07:13:55.942Z,17.78
2018-04-30T07:14:55.359Z,17.91
2018-04-30T07:16:55.778Z,18.13
2018-04-30T07:17:55.599Z,18.13
2018-04-30T07:18:55.392Z,18.15
2018-04-30T07:19:55.306Z,18.09
2018-04-30T07:20:55.307Z,18.03
2018-04-30T07:21:55.307Z,18.06
2018-04-30T07:22:55.235Z,17.96
2018-04-30T07:24:55.340Z,17.76
2018-04-30T07:25:55.393Z,17.76
2018-04-30T07:26:55.780Z,17.84
2018-04-30T07:27:56.544Z,17.83
2018-04-30T07:28:55.701Z,17.68
2018-04-30T07:29:55.533Z,17.68
2018-04-30T07:30:55.201Z,17.75
2018-04-30T07:32:55.457Z,17.73
2018-04-30T07:33:55.080Z,17.76
2018-04-30T07:34:55.021Z,17.75
2018-04-30T07:35:55.416Z,17.86
2018-04-30T07:36:55.002Z,17.86
2018-04-30T07:37:55.094Z,17.76
2018-04-30T07:38:54.983Z,17.54
2018-04-30T07:39:54.977Z,17.68
2018-04-30T07:40:55.132Z,17.71
2018-04-30T07:41:55.286Z,17.76
2018-04-30T07:42:55.027Z,17.87
2018-04-30T07:43:55.017Z,17.86
2018-04-30T07:44:55.121Z,17.75
2018-04-30T07:45:54.920Z,17.93
2018-04-30T07:46:54.898Z,17.91
2018-04-30T07:47:55.189Z,17.99
2018-04-30T07:48:54.892Z,18.05
2018-04-30T07:49:54.877Z,18.09
2018-04-30T07:50:54.908Z,18.23
2018-04-30T07:51:54.847Z,18.31
2018-04-30T07:52:54.835Z,18.42
2018-04-30T07:53:55.519Z,18.42
2018-04-30T07:54:54.817Z,18.48
2018-04-30T07:55:54.807Z,18.27
2018-04-30T07:56:54.884Z,18.43
2018-04-30T07:57:54.784Z,18.34
2018-04-30T07:58:54.860Z,18.38
2018-04-30T07:59:55.067Z,18.41
2018-04-30T08:00:54.752Z,18.36
2018-04-30T08:01:54.741Z,18.41
2018-04-30T08:02:54.785Z,18.31
2018-04-30T08:03:54.725Z,18.38
2018-04-30T08:04:54.714Z,18.46
2018-04-30T08:05:55.004Z,18.60
2018-04-30T08:06:54.696Z,18.43
2018-04-30T08:08:55.265Z,18.66
2018-04-30T08:09:54.699Z,18.46
2018-04-30T08:10:54.654Z,18.57
2018-04-30T08:11:54.649Z,18.61
2018-04-30T08:12:54.940Z,18.82
2018-04-30T08:13:54.627Z,18.96
2018-04-30T08:14:54.759Z,19.09
2018-04-30T08:15:54.617Z,19.16
2018-04-30T08:16:54.595Z,19.41
2018-04-30T08:17:54.641Z,19.67
2018-04-30T08:18:54.587Z,19.97
2018-04-30T08:19:54.608Z,20.15
2018-04-30T08:20:54.649Z,20.58
2018-04-30T08:21:54.600Z,20.55
2018-04-30T08:22:54.540Z,20.85
2018-04-30T08:23:54.528Z,21.10
2018-04-30T08:24:54.535Z,21.51
2018-04-30T08:25:54.815Z,21.93
2018-04-30T08:26:54.944Z,21.75
2018-04-30T08:27:54.579Z,21.62
2018-04-30T08:28:54.577Z,21.43
2018-04-30T08:29:54.493Z,21.85
2018-04-30T08:30:54.472Z,21.59
2018-04-30T08:31:54.466Z,21.29
2018-04-30T08:32:54.760Z,21.07
2018-04-30T08:33:54.455Z,21.00
2018-04-30T08:34:54.531Z,21.58
2018-04-30T08:35:59.521Z,21.56
2018-04-30T08:36:54.448Z,21.78
2018-04-30T08:37:54.497Z,21.65
2018-04-30T08:38:54.463Z,21.55
2018-04-30T08:39:54.782Z,21.71
2018-04-30T08:40:54.401Z,21.37
2018-04-30T08:41:54.467Z,21.90
2018-04-30T08:42:54.386Z,22.58
2018-04-30T08:43:54.372Z,22.96
2018-04-30T08:44:54.372Z,22.07
2018-04-30T08:45:54.357Z,21.55
2018-04-30T08:46:54.651Z,20.90
2018-04-30T08:47:54.353Z,20.67
2018-04-30T08:48:54.419Z,20.34
2018-04-30T08:49:54.416Z,20.34
2018-04-30T08:50:54.379Z,20.49
2018-04-30T08:51:54.316Z,20.32
2018-04-30T08:52:54.305Z,20.49
2018-04-30T08:53:54.606Z,20.33
2018-04-30T08:54:54.312Z,20.34
2018-04-30T08:55:54.287Z,20.15
2018-04-30T08:56:54.454Z,19.96
2018-04-30T08:57:54.262Z,19.81
2018-04-30T08:58:54.287Z,19.74
2018-04-30T08:59:54.247Z,19.81
2018-04-30T09:00:54.753Z,19.77
2018-04-30T09:01:54.233Z,20.00
2018-04-30T09:02:54.223Z,19.92
2018-04-30T09:03:54.324Z,19.99
2018-04-30T09:04:54.219Z,19.93
2018-04-30T09:05:54.305Z,19.86
2018-04-30T09:06:54.583Z,19.87
2018-04-30T09:07:54.272Z,19.86
2018-04-30T09:08:54.305Z,19.79
2018-04-30T09:09:54.273Z,19.72
2018-04-30T09:10:54.263Z,19.57
2018-04-30T09:11:54.150Z,19.78
2018-04-30T09:12:54.532Z,19.92
2018-04-30T09:13:54.124Z,20.00
2018-04-30T09:14:54.168Z,20.08
2018-04-30T09:15:59.676Z,20.26
2018-04-30T09:16:54.101Z,20.63
2018-04-30T09:17:54.144Z,21.22
2018-04-30T09:18:54.386Z,21.14
2018-04-30T09:19:54.072Z,21.55
2018-04-30T09:20:54.111Z,21.44
2018-04-30T09:21:54.068Z,21.20
2018-04-30T09:22:54.052Z,20.71
2018-04-30T09:23:54.073Z,20.36
2018-04-30T09:24:54.331Z,20.09
2018-04-30T09:25:54.021Z,20.09
2018-04-30T09:26:54.077Z,20.26
2018-04-30T09:27:54.009Z,20.29
2018-04-30T09:28:54.007Z,20.44
2018-04-30T09:29:53.990Z,20.67
2018-04-30T09:30:54.283Z,20.42
2018-04-30T09:31:53.974Z,20.26
2018-04-30T09:32:55.359Z,20.42
2018-04-30T09:33:54.047Z,20.37
2018-04-30T09:34:53.964Z,20.34
2018-04-30T09:35:54.039Z,20.23
2018-04-30T09:36:54.414Z,20.32
2018-04-30T09:37:53.925Z,20.25
2018-04-30T09:38:53.967Z,20.04
2018-04-30T09:39:53.919Z,19.96
2018-04-30T09:40:53.951Z,20.05
2018-04-30T09:41:53.934Z,19.96
2018-04-30T09:42:54.187Z,19.90
2018-04-30T09:43:53.885Z,19.79
2018-04-30T09:44:53.883Z,19.75
2018-04-30T09:45:54.069Z,19.68
2018-04-30T09:46:54.080Z,19.60
2018-04-30T09:47:54.061Z,19.49
2018-04-30T09:48:53.953Z,19.53
2018-04-30T09:49:54.167Z,19.53
2018-04-30T09:50:53.970Z,19.41
2018-04-30T09:51:53.876Z,19.20
2018-04-30T09:52:53.887Z,19.13
2018-04-30T09:53:53.901Z,19.13
2018-04-30T09:54:53.778Z,18.96
2018-04-30T09:55:53.848Z,18.83
2018-04-30T09:56:54.154Z,18.76
2018-04-30T09:57:53.760Z,18.64
2018-04-30T09:58:53.731Z,18.57
2018-04-30T09:59:53.723Z,18.51
2018-04-30T10:00:53.715Z,18.41
2018-04-30T10:01:53.702Z,18.36
2018-04-30T10:02:53.781Z,18.18
2018-04-30T10:03:54.079Z,18.26
2018-04-30T10:04:53.882Z,18.15
2018-04-30T10:05:53.761Z,18.12
2018-04-30T10:06:53.748Z,18.20
2018-04-30T10:07:53.739Z,18.06
2018-04-30T10:08:53.750Z,18.08
2018-04-30T10:09:53.800Z,18.17
2018-04-30T10:10:53.909Z,18.17
2018-04-30T10:11:53.902Z,18.15
2018-04-30T10:12:53.682Z,18.18
2018-04-30T10:13:53.581Z,18.11
2018-04-30T10:14:53.944Z,18.12
2018-04-30T10:15:53.795Z,18.18
2018-04-30T10:16:53.627Z,18.13
2018-04-30T10:17:53.930Z,18.12
2018-04-30T10:18:53.605Z,17.97
2018-04-30T10:19:53.512Z,17.99
2018-04-30T10:20:55.031Z,17.97
2018-04-30T10:21:55.061Z,17.81
2018-04-30T10:22:53.687Z,17.76
2018-04-30T10:23:54.994Z,17.76
2018-04-30T10:24:53.804Z,17.75
2018-04-30T10:25:53.528Z,17.79
2018-04-30T10:26:53.527Z,17.63
2018-04-30T10:27:53.430Z,17.41
2018-04-30T10:28:53.425Z,17.19
2018-04-30T10:29:53.409Z,17.35
2018-04-30T10:30:53.448Z,17.31
2018-04-30T10:31:53.704Z,17.28
2018-04-30T10:32:53.430Z,17.24
2018-04-30T10:33:53.355Z,17.37
2018-04-30T10:34:53.344Z,17.25
2018-04-30T10:35:53.425Z,17.41
2018-04-30T10:36:53.420Z,17.28
2018-04-30T10:37:53.656Z,17.24
2018-04-30T10:38:53.382Z,17.19
2018-04-30T10:39:53.371Z,17.14
2018-04-30T10:40:53.281Z,17.13
2018-04-30T10:41:53.261Z,17.14
2018-04-30T10:42:53.332Z,17.07
2018-04-30T10:43:53.538Z,17.07
2018-04-30T10:44:53.232Z,17.07
2018-04-30T10:45:53.318Z,17.06
2018-04-30T10:46:53.643Z,17.12
2018-04-30T10:47:53.288Z,17.01
2018-04-30T10:48:53.274Z,17.02
2018-04-30T10:49:53.583Z,17.13
2018-04-30T10:50:53.421Z,17.14
2018-04-30T10:51:53.240Z,16.98
2018-04-30T10:52:53.235Z,17.01
2018-04-30T10:53:53.207Z,17.02
2018-04-30T10:54:53.219Z,17.09
2018-04-30T10:55:53.441Z,17.04
2018-04-30T10:56:53.226Z,17.12
2018-04-30T10:57:53.081Z,17.22
2018-04-30T10:58:53.066Z,17.22
2018-04-30T10:59:53.150Z,17.22
2018-04-30T11:00:53.140Z,17.25
2018-04-30T11:01:53.337Z,17.30
2018-04-30T11:02:53.230Z,17.34
2018-04-30T11:03:53.221Z,17.24
2018-04-30T11:04:53.222Z,17.20
2018-04-30T11:05:53.118Z,17.27
2018-04-30T11:06:53.021Z,17.28
2018-04-30T11:07:53.392Z,17.12
2018-04-30T11:08:53.230Z,17.04
2018-04-30T11:09:52.944Z,17.01
2018-04-30T11:10:52.937Z,17.07
2018-04-30T11:11:52.922Z,16.99
2018-04-30T11:12:52.916Z,16.83
2018-04-30T11:13:53.232Z,16.91
2018-04-30T11:14:52.993Z,16.74
2018-04-30T11:15:52.872Z,16.83
2018-04-30T11:16:52.857Z,16.73
2018-04-30T11:17:52.937Z,16.77
2018-04-30T11:18:52.924Z,16.62
2018-04-30T11:19:53.137Z,16.64
2018-04-30T11:20:52.812Z,16.62
2018-04-30T11:21:52.892Z,16.70
2018-04-30T11:22:52.874Z,16.54
2018-04-30T11:23:52.780Z,16.52
2018-04-30T11:24:52.768Z,16.46
2018-04-30T11:25:52.763Z,16.43
2018-04-30T11:26:53.044Z,16.37
2018-04-30T11:27:52.745Z,16.39
2018-04-30T11:28:52.726Z,16.37
2018-04-30T11:29:52.708Z,16.29
2018-04-30T11:30:52.705Z,16.25
2018-04-30T11:31:52.683Z,16.28
2018-04-30T11:32:52.983Z,16.28
2018-04-30T11:33:52.993Z,16.33
2018-04-30T11:34:52.652Z,16.28
2018-04-30T11:35:52.643Z,16.33
2018-04-30T11:36:52.638Z,16.28
2018-04-30T11:37:52.634Z,16.34
2018-04-30T11:38:52.652Z,16.32
2018-04-30T11:39:52.602Z,16.40
2018-04-30T11:40:52.876Z,16.28
2018-04-30T11:41:52.555Z,16.33
2018-04-30T11:42:52.546Z,16.28
2018-04-30T11:43:52.547Z,16.28
2018-04-30T11:44:52.520Z,16.32
2018-04-30T11:45:52.510Z,16.25
2018-04-30T11:46:52.501Z,16.34
2018-04-30T11:47:52.781Z,16.29
2018-04-30T11:48:52.467Z,16.34
2018-04-30T11:49:52.552Z,16.28
2018-04-30T11:50:52.628Z,16.32
2018-04-30T11:51:52.437Z,16.33
2018-04-30T11:52:52.437Z,16.29
2018-04-30T11:53:52.425Z,16.28
2018-04-30T11:54:52.701Z,16.18
2018-04-30T11:55:52.398Z,16.17
2018-04-30T11:56:52.427Z,16.17
2018-04-30T11:57:52.362Z,16.13
2018-04-30T11:58:52.463Z,16.18
2018-04-30T11:59:52.347Z,16.14
2018-04-30T12:00:52.631Z,16.13
2018-04-30T12:01:52.641Z,16.16
2018-04-30T12:02:52.337Z,16.03
2018-04-30T12:03:52.293Z,15.99
2018-04-30T12:04:52.348Z,15.88
2018-04-30T12:05:52.255Z,15.99
2018-04-30T12:06:52.257Z,15.88
2018-04-30T12:07:52.238Z,15.78
2018-04-30T12:08:52.510Z,15.73
2018-04-30T12:09:52.214Z,15.63
2018-04-30T12:10:52.198Z,15.62
2018-04-30T12:11:52.186Z,15.52
2018-04-30T12:12:52.173Z,15.45
2018-04-30T12:13:52.214Z,15.41
2018-04-30T12:15:52.213Z,15.40
2018-04-30T12:16:52.116Z,15.50
2018-04-30T12:17:52.124Z,15.36
2018-04-30T12:18:52.288Z,15.41
2018-04-30T12:19:52.066Z,15.47
2018-04-30T12:20:52.666Z,15.58
2018-04-30T12:21:52.115Z,15.48
2018-04-30T12:22:52.138Z,15.52
2018-04-30T12:23:52.275Z,15.60
2018-04-30T12:24:52.005Z,15.56
2018-04-30T12:25:52.008Z,15.65
2018-04-30T12:26:52.385Z,15.68
2018-04-30T12:27:51.989Z,15.78
2018-04-30T12:28:51.962Z,15.77
2018-04-30T12:29:52.077Z,15.93
2018-04-30T12:30:52.013Z,16.14
2018-04-30T12:31:51.915Z,16.32
2018-04-30T12:32:52.297Z,16.43
2018-04-30T12:33:51.943Z,16.43
2018-04-30T12:34:51.984Z,16.44
2018-04-30T12:35:51.872Z,16.49
2018-04-30T12:36:51.988Z,16.46
2018-04-30T12:37:51.979Z,16.42
2018-04-30T12:38:53.484Z,16.42
2018-04-30T12:39:52.014Z,16.47
2018-04-30T12:40:51.801Z,16.36
2018-04-30T12:41:51.809Z,16.22
2018-04-30T12:42:51.994Z,16.05
2018-04-30T12:43:51.797Z,15.96
2018-04-30T12:44:51.836Z,15.87
2018-04-30T12:45:51.909Z,15.93
2018-04-30T12:46:51.737Z,15.72
2018-04-30T12:47:52.936Z,15.83
2018-04-30T12:48:51.833Z,15.78
2018-04-30T12:49:51.893Z,15.68
2018-04-30T12:50:52.163Z,15.69
2018-04-30T12:51:51.681Z,15.78
2018-04-30T12:52:51.752Z,15.81
2018-04-30T12:53:52.026Z,15.83
2018-04-30T12:54:51.636Z,15.85
2018-04-30T12:55:51.636Z,15.98
2018-04-30T12:56:51.822Z,15.85
2018-04-30T12:57:51.897Z,15.81
2018-04-30T12:58:51.677Z,15.73
2018-04-30T12:59:51.674Z,15.81
2018-04-30T13:00:51.661Z,15.77
2018-04-30T13:01:51.558Z,15.90
2018-04-30T13:02:51.698Z,15.95
2018-04-30T13:03:51.629Z,16.00
2018-04-30T13:04:51.973Z,16.49
2018-04-30T13:05:51.515Z,16.73
2018-04-30T13:06:51.492Z,17.69
2018-04-30T13:07:51.607Z,17.68
2018-04-30T13:08:52.856Z,17.90
2018-04-30T13:09:51.470Z,17.47
2018-04-30T13:10:51.460Z,17.01